Time;durP1;ratioP1;P1;durP2;ratioP2;P2;SDS_P1;SDS_P2;PMS_P1;PMS_P2;Temp;Humidity;BMP_temperature;BMP_pressure;BME280_temperature;BME280_humidity;BME280_pressure;Samples;Min_cycle;Max_cycle;Signal;HPM_P1;HPM_P2
2023/08/31 00:02:20;;;;;;;0.30;0.30;;;;;;;-144.31;100.00;58022.63;5065571;28;20041;-61
2023/08/31 00:05:44;;;;;;;0.30;0.30;;;;;;;-144.31;100.00;58022.63;5066823;28;20028;-61
2023/08/31 00:09:09;;;;;;;0.30;0.30;;;;;;;-144.31;100.00;58022.63;5066959;28;20230;-61
2023/08/31 00:12:33;;;;;;;0.30;0.30;;;;;;;-144.31;100.00;58022.63;5065707;28;20021;-60
2023/08/31 00:15:58;;;;;;;0.30;0.30;;;;;;;-144.31;100.00;58022.63;5040810;28;20054;-63
2023/08/31 00:19:22;;;;;;;0.30;0.30;;;;;;;-144.31;100.00;58022.63;5066801;28;20044;-60
2023/08/31 00:22:46;;;;;;;0.30;0.30;;;;;;;-144.31;100.00;58022.63;5065790;28;20478;-60
2023/08/31 00:26:10;;;;;;;0.30;0.30;;;;;;;-144.31;100.00;58022.63;5039895;28;20390;-62
2023/08/31 00:29:33;;;;;;;0.30;0.30;;;;;;;-144.31;100.00;58022.63;5065673;28;20147;-60
2023/08/31 00:33:01;;;;;;;0.40;0.40;;;;;;;-144.31;100.00;58022.63;5043165;28;20170;-62
2023/08/31 00:36:26;;;;;;;0.30;0.30;;;;;;;-144.31;100.00;58022.63;5063260;28;20060;-60
2023/08/31 00:39:52;;;;;;;0.30;0.30;;;;;;;-144.31;100.00;58022.63;5049215;28;20048;-59
2023/08/31 00:43:17;;;;;;;0.30;0.30;;;;;;;-144.31;100.00;58022.63;5065401;28;20118;-61
2023/08/31 00:46:42;;;;;;;0.30;0.30;;;;;;;-144.31;100.00;58022.63;5039018;28;20509;-62
2023/08/31 00:50:08;;;;;;;0.30;0.30;;;;;;;-144.31;100.00;58022.63;5039727;28;20049;-62
2023/08/31 00:53:33;;;;;;;0.30;0.30;;;;;;;-144.31;100.00;58022.63;5038789;28;20115;-63
2023/08/31 00:56:58;;;;;;;0.30;0.30;;;;;;;-144.31;100.00;58022.63;5062691;28;20416;-60
2023/08/31 01:00:27;;;;;;;0.40;0.40;;;;;;;-144.31;100.00;58022.63;5064438;28;20047;-61
2023/08/31 01:04:05;;;;;;;0.40;0.40;;;;;;;-144.31;100.00;58022.63;5056899;22;20049;-60
2023/08/31 01:07:52;;;;;;;0.30;0.30;;;;;;;-144.31;100.00;58022.63;5008304;28;20128;-61
2023/08/31 01:11:28;;;;;;;0.40;0.40;;;;;;;-144.31;100.00;58022.63;5025043;28;20113;-60
2023/08/31 01:15:07;;;;;;;0.40;0.40;;;;;;;-144.31;100.00;58022.63;5006377;28;20072;-60
2023/08/31 01:18:39;;;;;;;0.30;0.30;;;;;;;-144.31;100.00;58022.63;5023867;28;20554;-60
2023/08/31 01:22:40;;;;;;;0.40;0.40;;;;;;;-144.31;100.00;58022.63;4996876;28;20083;-60
2023/08/31 01:26:05;;;;;;;0.40;0.40;;;;;;;-144.31;100.00;58022.63;4988547;28;20045;-60
2023/08/31 01:29:29;;;;;;;0.30;0.30;;;;;;;-144.31;100.00;58022.63;4986334;28;20069;-62
2023/08/31 01:32:53;;;;;;;0.40;0.40;;;;;;;-144.31;100.00;58022.63;5005135;28;20045;-60
2023/08/31 01:36:18;;;;;;;0.40;0.40;;;;;;;-144.31;100.00;58022.63;5005505;28;20522;-60
2023/08/31 01:39:47;;;;;;;0.40;0.40;;;;;;;-144.31;100.00;58022.63;5003842;28;20046;-60
2023/08/31 01:43:14;;;;;;;0.40;0.40;;;;;;;-144.31;100.00;58022.63;5004472;28;20030;-61
2023/08/31 01:46:38;;;;;;;0.40;0.40;;;;;;;-144.31;100.00;58022.63;4978983;28;20454;-61
2023/08/31 01:50:03;;;;;;;0.40;0.40;;;;;;;-144.31;100.00;58022.63;5005803;28;20061;-60
2023/08/31 01:53:27;;;;;;;0.40;0.40;;;;;;;-144.31;100.00;58022.63;4979194;28;20125;-60
2023/08/31 01:56:51;;;;;;;0.40;0.40;;;;;;;-144.31;100.00;58022.63;5002400;28;20045;-59
2023/08/31 02:00:16;;;;;;;0.40;0.40;;;;;;;-144.31;100.00;58022.63;4984777;28;20045;-60
2023/08/31 02:03:40;;;;;;;0.40;0.40;;;;;;;-144.31;100.00;58022.63;4988558;28;20423;-59
2023/08/31 02:07:04;;;;;;;0.40;0.40;;;;;;;-144.31;100.00;58022.63;4987328;28;20069;-59
2023/08/31 02:10:29;;;;;;;0.40;0.40;;;;;;;-144.31;100.00;58022.63;5001472;28;20076;-60
2023/08/31 02:13:53;;;;;;;0.50;0.50;;;;;;;-144.31;100.00;58022.63;5004816;28;20461;-59
2023/08/31 02:17:17;;;;;;;0.40;0.40;;;;;;;-144.31;100.00;58022.63;4979616;28;20084;-60
2023/08/31 02:20:41;;;;;;;0.40;0.40;;;;;;;-144.31;100.00;58022.63;4986766;28;20049;-60
2023/08/31 02:24:06;;;;;;;0.40;0.40;;;;;;;-144.31;100.00;58022.63;4971078;28;20038;-60
2023/08/31 02:27:30;;;;;;;0.40;0.40;;;;;;;-144.31;100.00;58022.63;5002766;28;20385;-61
2023/08/31 02:30:57;;;;;;;0.40;0.40;;;;;;;-144.31;100.00;58022.63;4970326;28;20045;-61
2023/08/31 02:34:21;;;;;;;0.40;0.40;;;;;;;-144.31;100.00;58022.63;4995459;28;20041;-60
2023/08/31 02:37:46;;;;;;;0.40;0.40;;;;;;;-144.31;100.00;58022.63;5001997;28;20041;-60
2023/08/31 02:41:10;;;;;;;0.40;0.40;;;;;;;-144.31;100.00;58022.63;4986377;28;20056;-59
2023/08/31 02:44:34;;;;;;;0.30;0.30;;;;;;;-144.31;100.00;58022.63;5004042;28;20100;-59
2023/08/31 02:47:58;;;;;;;0.40;0.40;;;;;;;-144.31;100.00;58022.63;5003270;28;20364;-59
2023/08/31 02:51:23;;;;;;;0.40;0.40;;;;;;;-144.31;100.00;58022.63;5003458;28;20063;-60
2023/08/31 02:54:46;;;;;;;0.30;0.30;;;;;;;-144.31;100.00;58022.63;4992686;28;20076;-59
2023/08/31 02:58:10;;;;;;;0.40;0.40;;;;;;;-144.31;100.00;58022.63;4984503;28;20049;-59
2023/08/31 03:01:35;;;;;;;0.40;0.40;;;;;;;-144.31;100.00;58022.63;5002794;28;20117;-60
2023/08/31 03:05:02;;;;;;;0.40;0.40;;;;;;;-144.31;100.00;58022.63;5003422;28;20061;-60
2023/08/31 03:08:26;;;;;;;0.40;0.40;;;;;;;-144.31;100.00;58022.63;4994952;28;20042;-60
2023/08/31 03:11:50;;;;;;;0.40;0.40;;;;;;;-144.31;100.00;58022.63;5006211;28;20660;-60
2023/08/31 03:15:14;;;;;;;0.40;0.40;;;;;;;-144.31;100.00;58022.63;5006695;28;20037;-62
2023/08/31 03:18:38;;;;;;;0.30;0.30;;;;;;;-144.31;100.00;58022.63;4987847;28;20498;-61
2023/08/31 03:22:02;;;;;;;0.40;0.40;;;;;;;-144.31;100.00;58022.63;5006265;28;20034;-62
2023/08/31 03:25:27;;;;;;;0.40;0.40;;;;;;;-144.31;100.00;58022.63;5005905;28;20038;-61
2023/08/31 03:28:51;;;;;;;0.40;0.40;;;;;;;-144.31;100.00;58022.63;5007996;28;20112;-60
2023/08/31 03:32:15;;;;;;;0.40;0.40;;;;;;;-144.31;100.00;58022.63;4990093;28;20188;-60
2023/08/31 03:35:39;;;;;;;0.40;0.40;;;;;;;-144.31;100.00;58022.63;4989970;28;20156;-60
2023/08/31 03:39:04;;;;;;;0.40;0.40;;;;;;;-144.31;100.00;58022.63;4991152;28;20061;-59
2023/08/31 03:42:28;;;;;;;0.40;0.40;;;;;;;-144.31;100.00;58022.63;4981945;28;20135;-61
2023/08/31 03:45:55;;;;;;;0.40;0.40;;;;;;;-144.31;100.00;58022.63;4988359;28;20180;-60
2023/08/31 03:49:20;;;;;;;0.40;0.40;;;;;;;-144.31;100.00;58022.63;4988959;28;20680;-60
2023/08/31 03:52:44;;;;;;;0.38;0.38;;;;;;;-144.31;100.00;58022.63;5007855;28;20037;-59
2023/08/31 03:56:08;;;;;;;0.40;0.40;;;;;;;-144.31;100.00;58022.63;5005718;28;20427;-60
2023/08/31 03:59:33;;;;;;;0.40;0.40;;;;;;;-144.31;100.00;58022.63;4990539;28;20038;-60
2023/08/31 04:02:57;;;;;;;0.40;0.40;;;;;;;-144.31;100.00;58022.63;4989201;28;20068;-61
2023/08/31 04:06:21;;;;;;;0.40;0.40;;;;;;;-144.31;100.00;58022.63;4989746;28;20073;-61
2023/08/31 04:09:45;;;;;;;0.40;0.40;;;;;;;-144.31;100.00;58022.63;4995404;28;20151;-60
2023/08/31 04:13:09;;;;;;;0.40;0.40;;;;;;;-144.31;100.00;58022.63;5007315;28;20046;-61
2023/08/31 04:16:33;;;;;;;0.40;0.40;;;;;;;-144.31;100.00;58022.63;5006801;28;20084;-61
2023/08/31 04:19:56;;;;;;;0.40;0.40;;;;;;;-144.31;100.00;58022.63;5007022;28;20446;-60
2023/08/31 04:23:21;;;;;;;0.40;0.40;;;;;;;-144.31;100.00;58022.63;4984910;28;20072;-60
2023/08/31 04:26:45;;;;;;;0.40;0.40;;;;;;;-144.31;100.00;58022.63;5005331;28;20093;-60
2023/08/31 04:30:10;;;;;;;0.40;0.40;;;;;;;-144.31;100.00;58022.63;5004949;28;20042;-59
2023/08/31 04:33:34;;;;;;;0.40;0.40;;;;;;;-144.31;100.00;58022.63;5005921;28;20045;-61
2023/08/31 04:36:58;;;;;;;0.40;0.40;;;;;;;-144.31;100.00;58022.63;5007392;28;20041;-61
2023/08/31 04:40:22;;;;;;;0.40;0.40;;;;;;;-144.31;100.00;58022.63;5006943;28;20164;-62
2023/08/31 04:43:49;;;;;;;0.40;0.40;;;;;;;-144.31;100.00;58022.63;4978797;28;20435;-60
2023/08/31 04:47:13;;;;;;;0.40;0.40;;;;;;;-144.31;100.00;58022.63;5005604;28;20037;-61
2023/08/31 04:50:37;;;;;;;0.40;0.40;;;;;;;-144.31;100.00;58022.63;5004687;28;20041;-61
2023/08/31 04:54:02;;;;;;;0.30;0.30;;;;;;;-144.31;100.00;58022.63;5005260;28;20053;-60
2023/08/31 04:57:30;;;;;;;0.50;0.50;;;;;;;-144.31;100.00;58022.63;5005194;28;20108;-61
2023/08/31 05:00:54;;;;;;;0.40;0.40;;;;;;;-144.31;100.00;58022.63;5003931;28;20307;-62
2023/08/31 05:04:18;;;;;;;0.40;0.40;;;;;;;-144.31;100.00;58022.63;5002430;28;20033;-59
2023/08/31 05:07:43;;;;;;;0.40;0.40;;;;;;;-144.31;100.00;58022.63;5002765;28;20034;-60
2023/08/31 05:11:07;;;;;;;0.40;0.40;;;;;;;-144.31;100.00;58022.63;5000464;28;20160;-60
2023/08/31 05:14:32;;;;;;;0.30;0.30;;;;;;;-144.31;100.00;58022.63;4996563;28;20042;-60
2023/08/31 05:17:56;;;;;;;0.40;0.40;;;;;;;-144.31;100.00;58022.63;5004295;28;20041;-60
2023/08/31 05:21:20;;;;;;;0.40;0.40;;;;;;;-144.31;100.00;58022.63;4994171;28;20779;-61
2023/08/31 05:24:44;;;;;;;0.30;0.30;;;;;;;-144.31;100.00;58022.63;5005685;28;20044;-60
2023/08/31 05:28:08;;;;;;;0.32;0.32;;;;;;;-144.31;100.00;58022.63;5005573;28;20033;-59
2023/08/31 05:31:32;;;;;;;0.40;0.40;;;;;;;-144.31;100.00;58022.63;5004092;28;20048;-59
2023/08/31 05:34:56;;;;;;;0.40;0.40;;;;;;;-144.31;100.00;58022.63;5004821;28;20029;-60
2023/08/31 05:38:20;;;;;;;0.40;0.40;;;;;;;-144.31;100.00;58022.63;5004147;28;20095;-61
2023/08/31 05:41:44;;;;;;;0.40;0.40;;;;;;;-144.31;100.00;58022.63;5003379;28;20720;-60
2023/08/31 05:45:07;;;;;;;0.40;0.40;;;;;;;-144.31;100.00;58022.63;5003843;28;20044;-61
2023/08/31 05:48:31;;;;;;;0.40;0.40;;;;;;;-144.31;100.00;58022.63;5004514;28;20045;-59
2023/08/31 05:51:55;;;;;;;0.40;0.40;;;;;;;-144.31;100.00;58022.63;5004771;28;20038;-59
2023/08/31 05:55:19;;;;;;;0.40;0.40;;;;;;;-144.31;100.00;58022.63;5004778;28;20041;-59
2023/08/31 05:58:43;;;;;;;0.40;0.40;;;;;;;-144.31;100.00;58022.63;5004789;28;20099;-59
2023/08/31 06:02:08;;;;;;;0.30;0.30;;;;;;;-144.31;100.00;58022.63;5004423;28;20124;-58
2023/08/31 06:05:32;;;;;;;0.40;0.40;;;;;;;-144.31;100.00;58022.63;5002902;28;20764;-59
2023/08/31 06:08:57;;;;;;;0.30;0.30;;;;;;;-144.31;100.00;58022.63;5001194;28;20108;-60
2023/08/31 06:12:21;;;;;;;0.40;0.40;;;;;;;-144.31;100.00;58022.63;5003954;28;20042;-57
2023/08/31 06:15:46;;;;;;;0.40;0.40;;;;;;;-144.31;100.00;58022.63;5003213;28;20034;-59
2023/08/31 06:19:10;;;;;;;0.30;0.30;;;;;;;-144.31;100.00;58022.63;5004346;28;20037;-59
2023/08/31 06:22:34;;;;;;;0.30;0.30;;;;;;;-144.31;100.00;58022.63;5003871;28;20682;-62
2023/08/31 06:26:01;;;;;;;0.30;0.30;;;;;;;-144.31;100.00;58022.63;5004071;28;20036;-60
2023/08/31 06:29:25;;;;;;;0.40;0.40;;;;;;;-144.31;100.00;58022.63;5003288;28;20052;-61
2023/08/31 06:32:50;;;;;;;0.35;0.35;;;;;;;-144.31;100.00;58022.63;5002786;28;20046;-60
2023/08/31 06:36:14;;;;;;;0.30;0.30;;;;;;;-144.31;100.00;58022.63;5002187;28;20038;-59
2023/08/31 06:39:37;;;;;;;0.40;0.40;;;;;;;-144.31;100.00;58022.63;5004529;28;20041;-61
2023/08/31 06:43:03;;;;;;;0.30;0.30;;;;;;;-144.31;100.00;58022.63;5002197;28;20073;-60
2023/08/31 06:46:28;;;;;;;0.40;0.40;;;;;;;-144.31;100.00;58022.63;5001468;28;20472;-60
2023/08/31 06:49:52;;;;;;;0.40;0.40;;;;;;;-144.31;100.00;58022.63;5003621;28;20040;-60
2023/08/31 06:53:16;;;;;;;0.30;0.30;;;;;;;-144.31;100.00;58022.63;5003055;28;20046;-60
2023/08/31 06:56:41;;;;;;;0.38;0.38;;;;;;;-144.31;100.00;58022.63;5000454;28;20050;-61
2023/08/31 07:00:07;;;;;;;0.30;0.30;;;;;;;-144.31;100.00;58022.63;5002411;28;20439;-60
2023/08/31 07:03:31;;;;;;;0.30;0.30;;;;;;;-144.31;100.00;58022.63;5000582;28;20093;-62
2023/08/31 07:06:55;;;;;;;0.30;0.30;;;;;;;-144.31;100.00;58022.63;5002313;28;20034;-60
2023/08/31 07:10:19;;;;;;;0.30;0.30;;;;;;;-144.31;100.00;58022.63;5003616;28;20480;-61
2023/08/31 07:13:43;;;;;;;0.30;0.30;;;;;;;-144.31;100.00;58022.63;5002983;28;20073;-61
2023/08/31 07:17:07;;;;;;;0.30;0.30;;;;;;;-144.31;100.00;58022.63;5002870;28;20048;-61
2023/08/31 07:20:34;;;;;;;0.30;0.30;;;;;;;-144.31;100.00;58022.63;5002763;28;20046;-59
2023/08/31 07:23:58;;;;;;;0.20;0.20;;;;;;;-144.31;100.00;58022.63;5003971;28;20069;-60
2023/08/31 07:27:22;;;;;;;0.30;0.30;;;;;;;-144.31;100.00;58022.63;5003048;28;20053;-59
2023/08/31 07:30:46;;;;;;;0.30;0.30;;;;;;;-144.31;100.00;58022.63;5004206;28;20069;-61
2023/08/31 07:34:09;;;;;;;0.30;0.30;;;;;;;-144.31;100.00;58022.63;5003826;28;20053;-60
2023/08/31 07:37:37;;;;;;;0.30;0.30;;;;;;;-144.31;100.00;58022.63;5003395;28;20065;-59
2023/08/31 07:41:04;;;;;;;0.20;0.20;;;;;;;-144.31;100.00;58022.63;4998908;28;20133;-58
2023/08/31 07:44:28;;;;;;;;;;;;;;;-144.31;100.00;58022.63;5003127;28;20034;-58
2023/08/31 07:47:51;;;;;;;0.30;0.30;;;;;;;-144.31;100.00;58022.63;5002927;28;20378;-59
2023/08/31 07:51:23;;;;;;;0.28;0.28;;;;;;;-144.31;100.00;58022.63;5001329;28;20121;-60
2023/08/31 07:54:47;;;;;;;0.30;0.30;;;;;;;-144.31;100.00;58022.63;4984939;28;20075;-58
2023/08/31 07:58:11;;;;;;;0.30;0.30;;;;;;;-144.31;100.00;58022.63;5004266;28;20038;-59
2023/08/31 08:01:35;;;;;;;0.30;0.30;;;;;;;-144.31;100.00;58022.63;5008074;28;20042;-59
2023/08/31 08:04:59;;;;;;;0.20;0.20;;;;;;;-144.31;100.00;58022.63;5007788;28;20045;-58
2023/08/31 08:08:23;;;;;;;0.30;0.30;;;;;;;-144.31;100.00;58022.63;5004609;28;20046;-58
2023/08/31 08:11:50;;;;;;;0.30;0.30;;;;;;;-144.31;100.00;58022.63;5008111;28;20041;-59
2023/08/31 08:15:14;;;;;;;0.30;0.30;;;;;;;-144.31;100.00;58022.63;5007245;28;20041;-59
2023/08/31 08:18:38;;;;;;;0.30;0.30;;;;;;;-144.31;100.00;58022.63;5005890;28;20092;-58
2023/08/31 08:22:03;;;;;;;0.30;0.30;;;;;;;-144.31;100.00;58022.63;5008623;28;20069;-59
2023/08/31 08:25:27;;;;;;;0.30;0.30;;;;;;;-144.31;100.00;58022.63;5005181;28;20492;-60
2023/08/31 08:28:51;;;;;;;0.30;0.30;;;;;;;-144.31;100.00;58022.63;5007999;28;20080;-59
2023/08/31 08:32:15;;;;;;;0.30;0.30;;;;;;;-144.31;100.00;58022.63;5007129;28;20816;-60
2023/08/31 08:35:39;;;;;;;0.30;0.30;;;;;;;-144.31;100.00;58022.63;5006097;28;20034;-60
2023/08/31 08:39:04;;;;;;;0.30;0.30;;;;;;;-144.31;100.00;58022.63;5007661;28;20056;-59
2023/08/31 08:42:29;;;;;;;0.28;0.28;;;;;;;-144.31;100.00;58022.63;5007896;28;20053;-59
2023/08/31 08:46:00;;;;;;;0.20;0.20;;;;;;;-144.31;100.00;58022.63;5007459;28;20065;-59
2023/08/31 08:49:25;;;;;;;0.20;0.20;;;;;;;-144.31;100.00;58022.63;5006878;28;20485;-59
2023/08/31 08:52:50;;;;;;;0.20;0.20;;;;;;;-144.31;100.00;58022.63;5007435;28;20039;-59
2023/08/31 08:56:17;;;;;;;0.20;0.20;;;;;;;-144.31;100.00;58022.63;5006970;28;20045;-59
2023/08/31 08:59:40;;;;;;;0.20;0.20;;;;;;;-144.31;100.00;58022.63;5004990;28;20040;-59
2023/08/31 09:03:07;;;;;;;0.20;0.20;;;;;;;-144.31;100.00;58022.63;5006914;28;21027;-59
2023/08/31 09:06:31;;;;;;;0.20;0.20;;;;;;;-144.31;100.00;58022.63;5003493;28;20048;-59
2023/08/31 09:09:55;;;;;;;0.20;0.20;;;;;;;-144.31;100.00;58022.63;5007428;28;20109;-59
2023/08/31 09:13:20;;;;;;;0.20;0.20;;;;;;;-144.31;100.00;58022.63;5006548;28;20046;-58
2023/08/31 09:16:46;;;;;;;0.20;0.20;;;;;;;-144.31;100.00;58022.63;5004172;28;20129;-59
2023/08/31 09:20:20;;;;;;;0.20;0.20;;;;;;;-144.31;100.00;58022.63;4981252;28;20045;-59
2023/08/31 09:23:47;;;;;;;0.20;0.20;;;;;;;-144.31;100.00;58022.63;5004324;28;20551;-59
2023/08/31 09:27:11;;;;;;;0.20;0.20;;;;;;;-144.31;100.00;58022.63;5004345;28;20046;-59
2023/08/31 09:30:36;;;;;;;0.20;0.20;;;;;;;-144.31;100.00;58022.63;5005128;28;20108;-59
2023/08/31 09:34:03;;;;;;;0.20;0.20;;;;;;;-144.31;100.00;58022.63;5004666;28;20033;-59
2023/08/31 09:37:27;;;;;;;0.20;0.20;;;;;;;-144.31;100.00;58022.63;4988133;28;20042;-58
2023/08/31 09:40:51;;;;;;;0.20;0.20;;;;;;;-144.31;100.00;58022.63;5004223;28;20121;-59
2023/08/31 09:44:19;;;;;;;0.20;0.20;;;;;;;-144.31;100.00;58022.63;5005613;28;20066;-59
2023/08/31 09:47:44;;;;;;;0.20;0.20;;;;;;;-144.31;100.00;58022.63;5004871;28;20065;-60
2023/08/31 09:51:12;;;;;;;0.20;0.20;;;;;;;-144.31;100.00;58022.63;4987534;28;20117;-59
2023/08/31 09:54:40;;;;;;;0.20;0.20;;;;;;;-144.31;100.00;58022.63;5002743;28;20490;-59
2023/08/31 09:58:05;;;;;;;0.30;0.30;;;;;;;-144.31;100.00;58022.63;5005412;28;20626;-58
2023/08/31 10:01:29;;;;;;;0.30;0.30;;;;;;;-144.31;100.00;58022.63;4963894;28;20056;-60
2023/08/31 10:04:54;;;;;;;0.30;0.30;;;;;;;-144.31;100.00;58022.63;5006170;28;20523;-59
2023/08/31 10:08:18;;;;;;;0.20;0.20;;;;;;;-144.31;100.00;58022.63;5005059;28;20042;-59
2023/08/31 10:11:43;;;;;;;0.20;0.20;;;;;;;-144.31;100.00;58022.63;5003652;28;20042;-58
2023/08/31 10:15:07;;;;;;;0.20;0.20;;;;;;;-144.31;100.00;58022.63;5001995;28;20104;-59
2023/08/31 10:18:33;;;;;;;0.20;0.20;;;;;;;-144.31;100.00;58022.63;5004830;28;20034;-59
2023/08/31 10:22:00;;;;;;;0.20;0.20;;;;;;;-144.31;100.00;58022.63;5004582;28;20119;-59
2023/08/31 10:25:45;;;;;;;0.20;0.20;;;;;;;-144.31;100.00;58022.63;4978800;28;20041;-59
2023/08/31 10:29:26;;;;;;;0.20;0.20;;;;;;;-144.31;100.00;58022.63;5004216;28;20034;-59
2023/08/31 10:33:09;;;;;;;0.20;0.20;;;;;;;-144.31;100.00;58022.63;5004671;28;20138;-60
2023/08/31 10:36:59;;;;;;;0.20;0.20;;;;;;;-144.31;100.00;58022.63;4985717;28;20107;-59
2023/08/31 10:40:35;;;;;;;0.10;0.10;;;;;;;-144.31;100.00;58022.63;5001896;28;20029;-59
2023/08/31 10:44:19;;;;;;;0.10;0.10;;;;;;;-144.31;100.00;58022.63;5006036;28;20048;-59
2023/08/31 10:47:43;;;;;;;0.20;0.20;;;;;;;-144.31;100.00;58022.63;5004926;28;20081;-60
2023/08/31 10:51:30;;;;;;;0.20;0.20;;;;;;;-144.31;100.00;58022.63;5004135;28;20125;-60
2023/08/31 10:55:07;;;;;;;0.10;0.10;;;;;;;-144.31;100.00;58022.63;5003611;28;20407;-59
2023/08/31 10:58:33;;;;;;;0.10;0.10;;;;;;;-144.31;100.00;58022.63;5005180;28;20034;-59
2023/08/31 11:02:04;;;;;;;0.20;0.20;;;;;;;-144.31;100.00;58022.63;5004028;28;20535;-59
2023/08/31 11:05:29;;;;;;;0.20;0.20;;;;;;;-144.31;100.00;58022.63;5005484;28;20042;-60
2023/08/31 11:08:53;;;;;;;0.10;0.10;;;;;;;-144.31;100.00;58022.63;5005278;28;20157;-62
2023/08/31 11:12:22;;;;;;;0.20;0.20;;;;;;;-144.31;100.00;58022.63;5003177;28;20156;-58
2023/08/31 11:15:46;;;;;;;0.20;0.20;;;;;;;-144.31;100.00;58022.63;5004552;28;20624;-58
2023/08/31 11:19:10;;;;;;;0.20;0.20;;;;;;;-144.31;100.00;58022.63;5004506;28;20044;-58
2023/08/31 11:22:39;;;;;;;0.20;0.20;;;;;;;-144.31;100.00;58022.63;5002743;28;20057;-59
2023/08/31 11:26:03;;;;;;;0.10;0.10;;;;;;;-144.31;100.00;58022.63;4994968;28;20125;-58
2023/08/31 11:29:31;;;;;;;0.10;0.10;;;;;;;-144.31;100.00;58022.63;4995230;28;20042;-58
2023/08/31 11:32:55;;;;;;;0.20;0.20;;;;;;;-144.31;100.00;58022.63;5004865;28;20056;-60
2023/08/31 11:40:01;;;;;;;0.10;0.10;;;;;;;-144.31;100.00;58022.63;5903439;23;20503;31
2023/08/31 11:43:25;;;;;;;0.20;0.20;;;;;;;-144.31;100.00;58022.63;4845500;29;20054;-58
2023/08/31 11:46:50;;;;;;;0.10;0.10;;;;;;;-144.31;100.00;58022.63;4842166;29;20034;-59
2023/08/31 11:50:16;;;;;;;0.10;0.10;;;;;;;-144.31;100.00;58022.63;4841614;29;20380;-59
2023/08/31 11:53:41;;;;;;;0.10;0.10;;;;;;;-144.31;100.00;58022.63;4844797;29;20072;-59
2023/08/31 11:57:08;;;;;;;0.10;0.10;;;;;;;-144.31;100.00;58022.63;4852113;29;20129;-58
2023/08/31 12:00:33;;;;;;;0.10;0.10;;;;;;;-144.31;100.00;58022.63;4846294;29;20453;-61
2023/08/31 12:04:00;;;;;;;0.10;0.10;;;;;;;-144.31;100.00;58022.63;4837801;29;20091;-59
2023/08/31 12:07:24;;;;;;;0.20;0.20;;;;;;;-144.31;100.00;58022.63;4841161;29;20414;-59
2023/08/31 12:10:48;;;;;;;0.20;0.20;;;;;;;-144.31;100.00;58022.63;4840645;29;20140;-59
2023/08/31 12:14:32;;;;;;;0.20;0.20;;;;;;;-144.31;100.00;58022.63;4839493;29;20544;-57
2023/08/31 12:18:10;;;;;;;0.20;0.20;;;;;;;-144.31;100.00;58022.63;4844605;29;20050;-60
2023/08/31 12:21:46;;;;;;;0.10;0.10;;;;;;;-144.31;100.00;58022.63;4845209;29;20044;-58
2023/08/31 12:25:19;;;;;;;0.20;0.20;;;;;;;-144.31;100.00;58022.63;4844130;29;20042;-59
2023/08/31 12:28:43;;;;;;;0.10;0.10;;;;;;;-144.31;100.00;58022.63;4845621;29;20635;-59
2023/08/31 12:32:07;;;;;;;0.10;0.10;;;;;;;-144.31;100.00;58022.63;4839291;29;20413;-58
2023/08/31 12:35:31;;;;;;;0.10;0.10;;;;;;;-144.31;100.00;58022.63;4840047;29;20038;-59
2023/08/31 12:38:55;;;;;;;0.10;0.10;;;;;;;-144.31;100.00;58022.63;4841906;29;20253;-59
2023/08/31 12:42:19;;;;;;;0.10;0.10;;;;;;;-144.31;100.00;58022.63;4838015;29;20037;-58
2023/08/31 12:45:43;;;;;;;0.10;0.10;;;;;;;-144.31;100.00;58022.63;4846780;29;20443;-58
2023/08/31 12:49:07;;;;;;;0.10;0.10;;;;;;;-144.31;100.00;58022.63;4844373;29;20057;-57
2023/08/31 12:52:33;;;;;;;0.10;0.10;;;;;;;-144.31;100.00;58022.63;4840556;29;20568;-58
2023/08/31 12:55:57;;;;;;;0.10;0.10;;;;;;;-144.31;100.00;58022.63;4839522;29;20511;-59
2023/08/31 12:59:21;;;;;;;0.20;0.20;;;;;;;-144.31;100.00;58022.63;4840563;29;20214;-58
2023/08/31 13:02:45;;;;;;;0.20;0.20;;;;;;;-144.31;100.00;58022.63;4838857;29;20572;-58
2023/08/31 13:06:09;;;;;;;0.10;0.10;;;;;;;-144.31;100.00;58022.63;4841466;29;20046;-60
2023/08/31 13:09:33;;;;;;;0.20;0.20;;;;;;;-144.31;100.00;58022.63;4842831;29;20504;-59
2023/08/31 13:12:57;;;;;;;0.00;0.00;;;;;;;-144.31;100.00;58022.63;4844229;29;20125;-58
2023/08/31 13:16:24;;;;;;;0.00;0.00;;;;;;;-144.31;100.00;58022.63;4843547;29;20041;-59
2023/08/31 13:19:48;;;;;;;0.10;0.10;;;;;;;-144.31;100.00;58022.63;4846877;29;20041;-59
2023/08/31 13:23:12;;;;;;;0.10;0.10;;;;;;;-144.31;100.00;58022.63;4835701;29;20050;-58
2023/08/31 13:26:36;;;;;;;0.10;0.10;;;;;;;-144.31;100.00;58022.63;4838303;29;20480;-58
2023/08/31 13:30:00;;;;;;;0.10;0.10;;;;;;;-144.31;100.00;58022.63;4843519;29;20351;-58
2023/08/31 13:33:24;;;;;;;0.10;0.10;;;;;;;-144.31;100.00;58022.63;4844537;29;20046;-57
2023/08/31 13:36:48;;;;;;;0.10;0.10;;;;;;;-144.31;100.00;58022.63;4841674;29;20401;-58
2023/08/31 13:40:12;;;;;;;0.10;0.10;;;;;;;-144.31;100.00;58022.63;4844448;29;20041;-58
2023/08/31 13:43:47;;;;;;;0.10;0.10;;;;;;;-144.31;100.00;58022.63;4836828;29;20064;-57
2023/08/31 13:47:11;;;;;;;0.10;0.10;;;;;;;-144.31;100.00;58022.63;4835960;29;20063;-59
2023/08/31 13:50:34;;;;;;;0.10;0.10;;;;;;;-144.31;100.00;58022.63;4848971;29;20042;-58
2023/08/31 13:53:58;;;;;;;0.10;0.10;;;;;;;-144.31;100.00;58022.63;4843372;29;20653;-57
2023/08/31 13:57:22;;;;;;;0.20;0.20;;;;;;;-144.31;100.00;58022.63;4844134;29;20090;-58
2023/08/31 14:00:47;;;;;;;0.20;0.20;;;;;;;-144.31;100.00;58022.63;4836588;29;20196;-59
2023/08/31 14:04:11;;;;;;;0.20;0.20;;;;;;;-144.31;100.00;58022.63;4836773;29;20495;-58
2023/08/31 14:07:35;;;;;;;0.10;0.10;;;;;;;-144.31;100.00;58022.63;4850770;29;20285;-58
2023/08/31 14:11:01;;;;;;;0.10;0.10;;;;;;;-144.31;100.00;58022.63;4841322;29;20586;-58
2023/08/31 14:14:25;;;;;;;0.00;0.00;;;;;;;-144.31;100.00;58022.63;4843301;29;20053;-58
2023/08/31 14:17:55;;;;;;;0.00;0.00;;;;;;;-144.31;100.00;58022.63;4843486;29;20041;-58
2023/08/31 14:21:20;;;;;;;0.03;0.03;;;;;;;-144.31;100.00;58022.63;4838855;29;20052;-58
2023/08/31 14:24:44;;;;;;;0.10;0.10;;;;;;;-144.31;100.00;58022.63;4838291;29;20046;-58
2023/08/31 14:28:08;;;;;;;0.10;0.10;;;;;;;-144.31;100.00;58022.63;4833789;29;20181;-60
2023/08/31 14:31:33;;;;;;;0.10;0.10;;;;;;;-144.31;100.00;58022.63;4836410;29;20441;-58
2023/08/31 14:34:57;;;;;;;0.10;0.10;;;;;;;-144.31;100.00;58022.63;4844026;29;20132;-57
2023/08/31 14:38:22;;;;;;;0.10;0.10;;;;;;;-144.31;100.00;58022.63;4842116;29;20073;-58
2023/08/31 14:41:46;;;;;;;0.10;0.10;;;;;;;-144.31;100.00;58022.63;4841683;29;20059;-57
2023/08/31 14:45:10;;;;;;;0.10;0.10;;;;;;;-144.31;100.00;58022.63;4836831;29;20053;-57
2023/08/31 14:48:34;;;;;;;0.10;0.10;;;;;;;-144.31;100.00;58022.63;4837778;29;20061;-58
2023/08/31 14:51:59;;;;;;;0.10;0.10;;;;;;;-144.31;100.00;58022.63;4836276;29;20049;-56
2023/08/31 14:55:25;;;;;;;;;;;;;;;-144.31;100.00;58022.63;4835305;29;20467;-57
2023/08/31 14:58:48;;;;;;;0.10;0.10;;;;;;;-144.31;100.00;58022.63;4842481;29;19979;-58
2023/08/31 15:02:14;;;;;;;0.10;0.10;;;;;;;-144.31;100.00;58022.63;4842472;29;20073;-58
2023/08/31 15:05:41;;;;;;;0.10;0.10;;;;;;;-144.31;100.00;58022.63;4835013;29;20589;-57
2023/08/31 15:09:06;;;;;;;0.10;0.10;;;;;;;-144.31;100.00;58022.63;4834546;29;20049;-58
2023/08/31 15:12:30;;;;;;;0.13;0.13;;;;;;;-144.31;100.00;58022.63;4836587;29;20045;-57
2023/08/31 15:15:54;;;;;;;0.20;0.20;;;;;;;-144.31;100.00;58022.63;4835591;29;20082;-58
2023/08/31 15:19:18;;;;;;;0.20;0.20;;;;;;;-144.31;100.00;58022.63;4841964;29;20511;-58
2023/08/31 15:22:42;;;;;;;0.10;0.10;;;;;;;-144.31;100.00;58022.63;4842940;29;20762;-58
2023/08/31 15:26:06;;;;;;;0.20;0.20;;;;;;;-144.31;100.00;58022.63;4843340;29;20049;-58
2023/08/31 15:29:31;;;;;;;0.10;0.10;;;;;;;-144.31;100.00;58022.63;4835697;29;20059;-57
2023/08/31 15:32:54;;;;;;;0.10;0.10;;;;;;;-144.31;100.00;58022.63;4842404;29;20038;-58
2023/08/31 15:36:19;;;;;;;0.10;0.10;;;;;;;-144.31;100.00;58022.63;4837729;29;20045;-58
2023/08/31 15:39:43;;;;;;;0.20;0.20;;;;;;;-144.31;100.00;58022.63;4836603;29;20033;-57